Time;durP1;ratioP1;P1;durP2;ratioP2;P2;SDS_P1;SDS_P2;PMS_P1;PMS_P2;Temp;Humidity;BMP_temperature;BMP_pressure;BME280_temperature;BME280_humidity;BME280_pressure;Samples;Min_cycle;Max_cycle;Signal;HPM_P1;HPM_P2
2024/02/13 00:01:39;;;;;;;;;;;;;;;26.38;39.44;94066.25;5076926;28;7058;-55
2024/02/13 00:04:09;;;;;;;;;;;;;;;26.39;39.59;94073.25;5093338;28;9096;-39
2024/02/13 00:06:35;;;;;;;;;;;;;;;26.38;39.19;94069.72;5056286;28;7262;-39
2024/02/13 00:09:09;;;;;;;;;;;;;;;26.37;39.53;94068.25;5074436;28;7223;-39
2024/02/13 00:12:14;;;;;;;;;;;;;;;26.38;38.97;94080.03;5049424;28;9360;-40
2024/02/13 00:14:55;;;;;;;;;;;;;;;26.38;39.81;94091.06;5074090;28;7180;-42
2024/02/13 00:17:23;;;;;;;;;;;;;;;26.37;39.83;94090.31;5057708;28;8842;-42
2024/02/13 00:19:52;;;;;;;;;;;;;;;26.36;39.05;94085.34;5064831;28;6860;-43
2024/02/13 00:22:21;;;;;;;;;;;;;;;26.37;39.65;94090.31;5078178;28;7906;-42
2024/02/13 00:24:54;;;;;;;;;;;;;;;26.37;39.29;94095.84;5066156;28;7257;-42
2024/02/13 00:27:21;;;;;;;;;;;;;;;26.38;38.89;94099.34;5074939;28;7014;-42
2024/02/13 00:29:49;;;;;;;;;;;;;;;26.37;39.37;94106.13;5074531;28;9613;-42
2024/02/13 00:32:16;;;;;;;;;;;;;;;26.36;39.22;94112.91;5057985;28;7445;-42
2024/02/13 00:34:44;;;;;;;;;;;;;;;26.37;39.35;94117.91;5074441;28;9268;-42
2024/02/13 00:37:10;;;;;;;;;;;;;;;26.37;38.98;94112.38;5056861;28;7230;-42
2024/02/13 00:39:39;;;;;;;;;;;;;;;26.36;39.08;94121.91;5058379;28;6970;-42
2024/02/13 00:42:15;;;;;;;;;;;;;;;26.36;39.64;94129.47;5051370;28;6953;-42
2024/02/13 00:44:44;;;;;;;;;;;;;;;26.34;39.43;94129.97;5052084;28;9545;-43
2024/02/13 00:47:20;;;;;;;;;;;;;;;26.34;39.42;94132.00;5056781;28;9160;-43
2024/02/13 00:50:03;;;;;;;;;;;;;;;26.37;39.34;94139.22;5066485;28;7072;-42
2024/02/13 00:52:43;;;;;;;;;;;;;;;26.36;39.05;94140.50;5074269;28;7212;-42
2024/02/13 00:55:17;;;;;;;;;;;;;;;26.35;39.17;94144.50;5071443;28;9429;-43
2024/02/13 00:57:58;;;;;;;;;;;;;;;26.34;39.70;94146.50;5061521;28;7400;-41
2024/02/13 01:00:26;;;;;;;;;;;;;;;26.34;39.43;94149.25;5055572;28;7344;-42
2024/02/13 01:03:02;;;;;;;;;;;;;;;26.34;39.71;94154.06;5036371;28;7258;-42
2024/02/13 01:05:31;;;;;;;;;;;;;;;26.33;39.56;94160.81;5049300;28;9443;-41
2024/02/13 01:07:57;;;;;;;;;;;;;;;26.33;39.74;94156.06;5069424;28;7234;-42
2024/02/13 01:10:32;;;;;;;;;;;;;;;26.32;39.29;94164.84;5050789;28;7049;-43
2024/02/13 01:13:15;;;;;;;;;;;;;;;26.34;38.99;94170.59;5071402;28;7025;-41
2024/02/13 01:15:45;;;;;;;;;;;;;;;26.32;38.66;94182.13;5055285;28;7294;-41
2024/02/13 01:18:11;;;;;;;;;;;;;;;26.34;39.00;94184.38;5072728;28;7229;-42
2024/02/13 01:20:37;;;;;;;;;;;;;;;26.30;39.21;94181.16;5070293;28;7235;-42
2024/02/13 01:23:03;;;;;;;;;;;;;;;26.33;39.10;94191.91;5073708;28;6977;-37
2024/02/13 01:25:32;;;;;;;;;;;;;;;26.34;39.78;94195.41;5075385;28;6983;-37
2024/02/13 01:28:00;;;;;;;;;;;;;;;26.32;39.56;94206.94;5074579;28;9077;-38
2024/02/13 01:30:38;;;;;;;;;;;;;;;26.32;39.58;94208.97;5082088;28;7467;-38
2024/02/13 01:33:06;;;;;;;;;;;;;;;26.28;39.65;94203.75;5057539;28;7206;-37
2024/02/13 01:35:34;;;;;;;;;;;;;;;26.30;39.80;94205.97;5065801;28;6974;-37
2024/02/13 01:38:30;;;;;;;;;;;;;;;26.34;39.26;94212.69;5059062;28;8733;-38
2024/02/13 01:40:56;;;;;;;;;;;;;;;26.33;39.77;94213.22;4979265;28;9260;-38
2024/02/13 01:43:25;;;;;;;;;;;;;;;26.33;39.29;94207.69;4960274;28;7203;-37
2024/02/13 01:45:52;;;;;;;;;;;;;;;26.34;39.45;94217.47;4964917;28;7308;-37
2024/02/13 01:48:22;;;;;;;;;;;;;;;26.32;39.79;94220.00;4958043;28;7239;-38
2024/02/13 01:50:49;;;;;;;;;;;;;;;26.33;39.17;94221.47;4957674;28;7257;-37
2024/02/13 01:53:23;;;;;;;;;;;;;;;26.31;39.17;94218.50;4990221;28;7257;-37
2024/02/13 01:56:15;;;;;;;;;;;;;;;26.34;38.95;94234.00;4956434;28;7210;-37
2024/02/13 01:58:58;;;;;;;;;;;;;;;26.32;39.16;94220.00;4955885;28;8804;-37
2024/02/13 02:01:29;;;;;;;;;;;;;;;26.31;39.46;94224.78;4949789;28;8719;-37
2024/02/13 02:04:06;;;;;;;;;;;;;;;26.32;39.50;94231.03;4956218;28;8864;-38
2024/02/13 02:06:34;;;;;;;;;;;;;;;26.32;39.27;94233.78;4974884;28;6997;-37
2024/02/13 02:09:05;;;;;;;;;;;;;;;26.33;39.30;94240.78;4972686;28;7739;-37
2024/02/13 02:11:53;;;;;;;;;;;;;;;26.31;39.52;94235.78;4981465;28;9214;-37
2024/02/13 02:14:31;;;;;;;;;;;;;;;26.32;39.31;94234.50;4968128;28;9001;-37
2024/02/13 02:17:09;;;;;;;;;;;;;;;26.33;39.35;94249.06;4976798;28;9106;-37
2024/02/13 02:19:36;;;;;;;;;;;;;;;26.32;39.20;94239.31;5051549;28;7030;-37
2024/02/13 02:22:03;;;;;;;;;;;;;;;26.31;39.29;94244.06;5075566;28;6941;-38
2024/02/13 02:24:33;;;;;;;;;;;;;;;26.31;38.67;94241.31;5082384;28;8759;-38
2024/02/13 02:26:59;;;;;;;;;;;;;;;26.29;39.11;94240.34;5054644;28;9724;-38
2024/02/13 02:29:28;;;;;;;;;;;;;;;26.29;39.68;94245.84;5074571;28;6976;-37
2024/02/13 02:31:56;;;;;;;;;;;;;;;26.26;39.82;94241.34;5056698;28;7983;-37
2024/02/13 02:34:26;;;;;;;;;;;;;;;26.27;39.54;94245.63;5075692;28;7660;-37
2024/02/13 02:37:02;;;;;;;;;;;;;;;26.28;39.43;94252.63;5083584;28;8204;-37
2024/02/13 02:39:34;;;;;;;;;;;;;;;26.28;39.47;94258.88;5072359;28;9104;-37
2024/02/13 02:42:09;;;;;;;;;;;;;;;26.28;38.96;94258.13;5072523;28;6981;-38
2024/02/13 02:45:06;;;;;;;;;;;;;;;26.27;38.93;94262.16;5050878;28;9154;-38
2024/02/13 02:47:53;;;;;;;;;;;;;;;26.28;39.03;94263.63;4993729;28;7192;-38
2024/02/13 02:50:29;;;;;;;;;;;;;;;26.27;39.04;94265.69;5019619;28;8800;-37
2024/02/13 02:52:57;;;;;;;;;;;;;;;26.28;39.45;94264.41;5016449;28;7208;-38
2024/02/13 02:55:25;;;;;;;;;;;;;;;26.27;39.41;94264.91;5025391;28;9423;-38
2024/02/13 02:58:02;;;;;;;;;;;;;;;26.25;39.27;94259.19;5014675;28;7222;-37
2024/02/13 03:00:46;;;;;;;;;;;;;;;26.26;39.63;94268.94;4998613;28;7185;-38
2024/02/13 03:03:23;;;;;;;;;;;;;;;26.23;38.80;94267.22;4988629;28;7475;-38
2024/02/13 03:05:51;;;;;;;;;;;;;;;26.27;38.94;94267.69;5028752;28;9468;-37
2024/02/13 03:08:29;;;;;;;;;;;;;;;26.24;39.06;94272.22;5015348;28;7239;-37
2024/02/13 03:10:58;;;;;;;;;;;;;;;26.25;38.86;94275.72;4999316;28;7635;-37
2024/02/13 03:13:24;;;;;;;;;;;;;;;26.23;39.30;94270.72;5011485;28;8766;-38
2024/02/13 03:15:55;;;;;;;;;;;;;;;26.24;38.92;94283.25;4985627;28;7235;-38
2024/02/13 03:18:26;;;;;;;;;;;;;;;26.25;39.04;94287.50;5014188;28;7305;-37
2024/02/13 03:20:52;;;;;;;;;;;;;;;26.27;39.19;94290.50;5021461;28;8308;-37
2024/02/13 03:23:20;;;;;;;;;;;;;;;26.26;39.55;94291.00;5026950;28;7017;-37
2024/02/13 03:25:58;;;;;;;;;;;;;;;26.27;39.02;94292.50;5063513;28;6970;-37
2024/02/13 03:28:30;;;;;;;;;;;;;;;26.28;38.96;94299.47;5074669;28;9089;-37
2024/02/13 03:31:00;;;;;;;;;;;;;;;26.27;38.62;94303.53;5062020;28;9533;-38
2024/02/13 03:33:31;;;;;;;;;;;;;;;26.25;39.44;94298.53;5077483;28;6857;-38
2024/02/13 03:35:59;;;;;;;;;;;;;;;26.25;39.64;94297.78;5074441;28;6988;-37
2024/02/13 03:38:26;;;;;;;;;;;;;;;26.24;39.06;94297.03;5075673;28;8270;-37
2024/02/13 03:41:06;;;;;;;;;;;;;;;26.23;39.42;94297.56;5074150;28;7056;-37
2024/02/13 03:43:52;;;;;;;;;;;;;;;26.25;38.74;94297.78;5078838;28;7280;-56
2024/02/13 03:46:50;;;;;;;;;;;;;;;26.24;38.62;94302.53;5065737;28;7258;-57
2024/02/13 03:49:17;;;;;;;;;;;;;;;26.25;39.14;94303.28;5018076;28;7617;-56
2024/02/13 03:51:44;;;;;;;;;;;;;;;26.26;38.88;94305.53;4998917;28;8359;-56
2024/02/13 03:54:21;;;;;;;;;;;;;;;26.27;38.92;94307.03;5013345;28;7277;-56
2024/02/13 03:57:00;;;;;;;;;;;;;;;26.27;38.91;94307.03;5015500;28;8739;-56
2024/02/13 03:59:29;;;;;;;;;;;;;;;26.25;39.03;94304.03;5011904;28;7239;-56
2024/02/13 04:01:54;;;;;;;;;;;;;;;26.25;38.70;94317.84;5009669;28;7046;-56
2024/02/13 04:04:20;;;;;;;;;;;;;;;26.24;39.12;94319.09;4994800;28;7110;-56
2024/02/13 04:06:46;;;;;;;;;;;;;;;26.24;38.74;94318.34;4996878;28;9369;-56
2024/02/13 04:09:17;;;;;;;;;;;;;;;26.24;38.87;94323.84;5022421;28;8721;-57
2024/02/13 04:11:45;;;;;;;;;;;;;;;26.24;39.09;94315.56;5017408;28;6959;-56
2024/02/13 04:14:14;;;;;;;;;;;;;;;26.23;38.68;94327.88;5010023;28;7169;-57
2024/02/13 04:16:42;;;;;;;;;;;;;;;26.24;38.80;94326.59;5013167;28;9097;-57
2024/02/13 04:19:08;;;;;;;;;;;;;;;26.25;38.78;94331.63;5004998;28;9137;-56
2024/02/13 04:21:34;;;;;;;;;;;;;;;26.24;38.63;94332.13;5024995;28;7422;-56
2024/02/13 04:24:02;;;;;;;;;;;;;;;26.24;38.75;94340.38;5020860;28;8743;-56
2024/02/13 04:26:30;;;;;;;;;;;;;;;26.24;38.63;94341.13;5076494;28;7032;-56
2024/02/13 04:29:04;;;;;;;;;;;;;;;26.25;39.06;94336.38;5093411;28;7028;-56
2024/02/13 04:31:36;;;;;;;;;;;;;;;26.25;39.04;94342.66;5078023;28;7997;-56
2024/02/13 04:34:26;;;;;;;;;;;;;;;26.24;39.01;94346.66;5071217;28;7203;-57
2024/02/13 04:37:02;;;;;;;;;;;;;;;26.20;38.93;94337.16;5094681;28;7215;-57
2024/02/13 04:39:37;;;;;;;;;;;;;;;26.20;39.04;94328.91;5061472;28;7299;-57
2024/02/13 04:42:12;;;;;;;;;;;;;;;26.24;38.39;94343.16;5073989;28;9131;-56
2024/02/13 04:44:46;;;;;;;;;;;;;;;26.22;38.64;94327.13;5088453;28;7113;-57
2024/02/13 04:47:12;;;;;;;;;;;;;;;26.22;38.39;94342.91;5076009;28;7065;-57
2024/02/13 04:49:38;;;;;;;;;;;;;;;26.21;38.39;94342.16;5072431;28;8835;-57
2024/02/13 04:52:24;;;;;;;;;;;;;;;26.24;38.41;94343.16;5055827;28;7473;-42
2024/02/13 04:54:57;;;;;;;;;;;;;;;26.24;38.65;94337.63;5057853;28;7078;-42
2024/02/13 04:57:27;;;;;;;;;;;;;;;26.22;38.74;94342.91;5080385;28;8706;-44
2024/02/13 05:00:18;;;;;;;;;;;;;;;26.21;38.95;94352.47;5056086;28;9065;-41
2024/02/13 05:02:50;;;;;;;;;;;;;;;26.21;38.84;94341.44;5045903;28;8280;-42
2024/02/13 05:08:01;;;;;;;;;;;;;;;26.21;38.79;94344.19;5063357;28;6998;-42
2024/02/13 05:10:33;;;;;;;;;;;;;;;26.19;39.29;94344.69;5050592;28;7447;-42
2024/02/13 05:13:08;;;;;;;;;;;;;;;26.21;38.84;94344.19;5081899;28;7231;-44
2024/02/13 05:15:36;;;;;;;;;;;;;;;26.21;38.94;94342.16;5057196;28;9289;-42
2024/02/13 05:18:06;;;;;;;;;;;;;;;26.21;38.39;94352.47;5060881;28;9942;-42
2024/02/13 05:20:33;;;;;;;;;;;;;;;26.19;38.67;94349.47;5055947;28;9038;-41
2024/02/13 05:23:01;;;;;;;;;;;;;;;26.19;38.63;94341.22;5055599;28;7269;-43
2024/02/13 05:25:45;;;;;;;;;;;;;;;26.22;38.74;94340.16;5073931;28;7062;-43
2024/02/13 05:28:20;;;;;;;;;;;;;;;26.22;38.97;94345.66;5073469;28;7279;-42
2024/02/13 05:30:49;;;;;;;;;;;;;;;26.16;38.79;94338.19;5085394;28;7013;-42
2024/02/13 05:33:16;;;;;;;;;;;;;;;26.15;38.62;94344.22;5073544;28;8838;-42
2024/02/13 05:35:44;;;;;;;;;;;;;;;26.14;38.85;94354.50;5084816;28;7074;-43
2024/02/13 05:38:10;;;;;;;;;;;;;;;26.12;38.94;94339.75;5072325;28;7002;-42
2024/02/13 05:40:38;;;;;;;;;;;;;;;26.13;39.24;94341.25;5055056;28;7243;-42
2024/02/13 05:43:11;;;;;;;;;;;;;;;26.12;38.60;94337.00;5056998;28;7174;-42
2024/02/13 05:45:40;;;;;;;;;;;;;;;26.09;38.64;94336.03;5057528;28;7565;-44
2024/02/13 05:48:09;;;;;;;;;;;;;;;26.11;39.44;94344.53;5061998;28;8778;-42
2024/02/13 05:50:43;;;;;;;;;;;;;;;26.09;39.04;94344.28;5053533;28;7059;-43
2024/02/13 05:53:10;;;;;;;;;;;;;;;26.14;38.51;94349.00;5049548;28;9434;-42
2024/02/13 05:55:38;;;;;;;;;;;;;;;26.13;39.02;94344.00;5066296;28;7078;-43
2024/02/13 05:58:11;;;;;;;;;;;;;;;26.12;38.91;94348.75;5080626;28;7247;-42
2024/02/13 06:00:37;;;;;;;;;;;;;;;26.13;39.11;94344.00;5074756;28;6977;-42
2024/02/13 06:03:08;;;;;;;;;;;;;;;26.12;39.31;94356.31;5074900;28;7477;-41
2024/02/13 06:05:40;;;;;;;;;;;;;;;26.15;38.95;94349.75;5073687;28;7551;-41
2024/02/13 06:08:15;;;;;;;;;;;;;;;26.08;38.94;94348.31;5067973;28;8719;-42
2024/02/13 06:10:44;;;;;;;;;;;;;;;26.05;39.22;94348.56;5079633;28;7334;-43
2024/02/13 06:13:11;;;;;;;;;;;;;;;25.96;39.26;94349.66;5058186;28;7066;-41
2024/02/13 06:15:37;;;;;;;;;;;;;;;25.95;39.05;94359.16;5077236;28;7002;-43
2024/02/13 06:18:05;;;;;;;;;;;;;;;25.93;39.12;94356.16;5083610;28;8849;-42
2024/02/13 06:20:33;;;;;;;;;;;;;;;25.92;39.58;94349.19;5069225;28;7410;-41
2024/02/13 06:23:00;;;;;;;;;;;;;;;25.89;39.42;94357.72;5061793;28;8767;-42
2024/02/13 06:25:30;;;;;;;;;;;;;;;25.83;39.88;94360.53;5074700;28;7157;-41
2024/02/13 06:28:14;;;;;;;;;;;;;;;25.86;39.15;94358.75;5087244;28;7070;-42
2024/02/13 06:30:42;;;;;;;;;;;;;;;25.86;39.34;94356.00;5059324;28;8757;-42
2024/02/13 06:33:14;;;;;;;;;;;;;;;25.92;39.14;94360.19;5069741;28;7001;-42
2024/02/13 06:35:53;;;;;;;;;;;;;;;25.97;38.57;94378.69;5063665;28;6986;-42
2024/02/13 06:38:29;;;;;;;;;;;;;;;25.90;39.34;94362.69;5072655;28;7333;-43
2024/02/13 06:40:59;;;;;;;;;;;;;;;25.93;38.64;94382.97;5080076;28;7323;-42
2024/02/13 06:43:27;;;;;;;;;;;;;;;25.95;39.59;94381.19;5077354;28;8472;-42
2024/02/13 06:45:54;;;;;;;;;;;;;;;26.00;39.59;94385.94;5084906;28;7222;-42
2024/02/13 06:48:25;;;;;;;;;;;;;;;26.02;38.95;94390.94;5062203;28;7233;-43
2024/02/13 06:50:51;;;;;;;;;;;;;;;26.03;39.75;94384.88;5066430;28;7190;-43
2024/02/13 06:53:17;;;;;;;;;;;;;;;26.06;39.44;94383.88;5074361;28;9083;-41
2024/02/13 06:55:43;;;;;;;;;;;;;;;26.10;39.60;94389.13;5066226;28;7048;-44
2024/02/13 06:58:10;;;;;;;;;;;;;;;26.12;39.27;94383.88;5059236;28;8310;-42
2024/02/13 07:00:36;;;;;;;;;;;;;;;26.13;39.41;94391.63;5072957;28;7830;-42
2024/02/13 07:03:03;;;;;;;;;;;;;;;26.11;39.10;94391.38;5076754;28;8720;-42
2024/02/13 07:05:38;;;;;;;;;;;;;;;26.12;38.92;94384.59;5072925;28;6964;-42
2024/02/13 07:08:15;;;;;;;;;;;;;;;26.13;39.48;94388.84;5073980;28;9064;-43
2024/02/13 07:10:57;;;;;;;;;;;;;;;26.15;38.89;94389.09;5083266;28;7515;-44
2024/02/13 07:13:28;;;;;;;;;;;;;;;26.12;38.99;94383.88;5070864;28;7237;-37
2024/02/13 07:16:00;;;;;;;;;;;;;;;26.11;39.01;94391.38;5057169;28;8464;-38
2024/02/13 07:18:26;;;;;;;;;;;;;;;26.13;38.63;94397.13;5075562;28;9071;-37
2024/02/13 07:20:54;;;;;;;;;;;;;;;26.14;39.32;94401.38;5077018;28;8816;-38
2024/02/13 07:23:21;;;;;;;;;;;;;;;26.16;39.23;94398.13;5049764;28;9323;-37
2024/02/13 07:25:51;;;;;;;;;;;;;;;26.13;38.79;94402.66;5063394;28;7249;-38
2024/02/13 07:28:19;;;;;;;;;;;;;;;26.16;39.02;94407.13;5072459;28;7022;-38
2024/02/13 07:30:46;;;;;;;;;;;;;;;26.16;38.99;94407.13;5077061;28;7244;-38
2024/02/13 07:33:15;;;;;;;;;;;;;;;26.15;38.61;94411.16;5051286;28;9886;-38
2024/02/13 07:36:05;;;;;;;;;;;;;;;26.20;39.03;94411.59;5057309;28;7461;-38
2024/02/13 07:38:38;;;;;;;;;;;;;;;26.17;38.77;94419.66;5060983;28;7251;-38
2024/02/13 07:41:11;;;;;;;;;;;;;;;26.20;39.14;94422.63;5050211;28;7086;-38
2024/02/13 07:43:42;;;;;;;;;;;;;;;26.22;39.34;94414.59;5049420;28;7242;-38
2024/02/13 07:46:11;;;;;;;;;;;;;;;26.20;38.74;94417.88;5073874;28;6983;-38
2024/02/13 07:48:58;;;;;;;;;;;;;;;26.20;39.20;94419.88;5059399;28;8682;-37
2024/02/13 07:51:32;;;;;;;;;;;;;;;26.19;38.88;94423.91;5066537;28;6948;-37
2024/02/13 07:54:04;;;;;;;;;;;;;;;26.22;39.06;94420.88;5056683;28;7231;-37
2024/02/13 07:56:32;;;;;;;;;;;;;;;26.23;38.30;94421.63;5056602;28;7256;-37
2024/02/13 07:59:02;;;;;;;;;;;;;;;26.22;38.26;94414.59;5072730;28;7831;-37
2024/02/13 08:01:28;;;;;;;;;;;;;;;26.19;38.71;94413.59;5052394;28;7625;-37
2024/02/13 08:03:56;;;;;;;;;;;;;;;26.20;38.56;94411.59;5077988;28;7496;-38
2024/02/13 08:06:22;;;;;;;;;;;;;;;26.18;38.61;94417.66;5077765;28;7131;-37
2024/02/13 08:09:00;;;;;;;;;;;;;;;26.22;38.70;94425.63;5069082;28;7076;-37
2024/02/13 08:11:28;;;;;;;;;;;;;;;26.22;39.05;94425.63;5072089;28;7315;-37
2024/02/13 08:13:57;;;;;;;;;;;;;;;26.22;38.77;94425.63;5085834;28;7006;-38
2024/02/13 08:16:23;;;;;;;;;;;;;;;26.23;39.13;94433.38;5051040;28;7054;-37
2024/02/13 08:18:51;;;;;;;;;;;;;;;26.23;38.79;94441.66;5082590;28;7043;-38
2024/02/13 08:21:17;;;;;;;;;;;;;;;26.24;38.88;94434.88;5081027;28;7279;-37
2024/02/13 08:23:43;;;;;;;;;;;;;;;26.28;38.25;94442.88;5058361;28;7312;-42
2024/02/13 08:26:15;;;;;;;;;;;;;;;26.29;38.54;94444.38;5059729;28;7202;-42
2024/02/13 08:28:44;;;;;;;;;;;;;;;26.33;38.53;94439.31;5077277;28;8856;-42
2024/02/13 08:31:14;;;;;;;;;;;;;;;26.33;38.42;94442.06;5077424;28;8686;-40
2024/02/13 08:33:51;;;;;;;;;;;;;;;26.27;38.52;94431.09;5064918;28;9145;-41
2024/02/13 08:36:18;;;;;;;;;;;;;;;26.27;38.80;94433.88;5071278;28;7236;-42
2024/02/13 08:38:45;;;;;;;;;;;;;;;26.30;38.38;94443.84;5081770;28;7263;-43
2024/02/13 08:41:13;;;;;;;;;;;;;;;26.31;38.78;94439.09;5082146;28;7399;-43
2024/02/13 08:43:48;;;;;;;;;;;;;;;26.33;38.33;94442.06;5085102;28;7298;-42
2024/02/13 08:46:19;;;;;;;;;;;;;;;26.33;38.63;94442.06;5070739;28;7350;-47
2024/02/13 08:48:55;;;;;;;;;;;;;;;26.33;38.66;94431.03;5076439;28;7021;-44
2024/02/13 08:51:35;;;;;;;;;;;;;;;26.32;38.81;94432.31;5077208;28;8735;-44
2024/02/13 08:54:14;;;;;;;;;;;;;;;26.34;38.83;94436.03;5078730;28;9067;-46
2024/02/13 08:56:53;;;;;;;;;;;;;;;26.34;39.04;94440.81;5077927;28;9715;-45
2024/02/13 08:59:23;;;;;;;;;;;;;;;26.36;39.49;94444.53;5062138;28;7308;-43
2024/02/13 09:02:04;;;;;;;;;;;;;;;26.36;39.01;94443.81;5052714;28;7069;-44
2024/02/13 09:04:51;;;;;;;;;;;;;;;26.36;38.63;94446.56;5061462;28;7094;-43
2024/02/13 09:07:28;;;;;;;;;;;;;;;26.36;39.06;94443.81;5049390;28;9092;-42
2024/02/13 09:09:55;;;;;;;;;;;;;;;26.36;39.02;94439.03;5076623;28;7530;-43
2024/02/13 09:12:32;;;;;;;;;;;;;;;26.37;38.73;94451.56;5076119;28;7348;-41
2024/02/13 09:15:13;;;;;;;;;;;;;;;26.39;38.89;94451.03;5068866;28;9221;-40
2024/02/13 09:17:43;;;;;;;;;;;;;;;26.38;38.91;94439.25;5066229;28;7072;-42
2024/02/13 09:20:21;;;;;;;;;;;;;;;26.39;38.49;94454.56;5055090;28;7245;-42
2024/02/13 09:22:49;;;;;;;;;;;;;;;26.38;38.85;94449.56;5064994;28;7200;-41
2024/02/13 09:25:26;;;;;;;;;;;;;;;26.39;39.27;94449.03;5070037;28;7631;-41
2024/02/13 09:27:59;;;;;;;;;;;;;;;26.42;38.92;94444.50;5075238;28;7822;-42
2024/02/13 09:30:33;;;;;;;;;;;;;;;26.41;39.08;94454.03;5055493;28;7061;-42
2024/02/13 09:33:21;;;;;;;;;;;;;;;26.42;38.80;94458.31;5068707;28;7260;-57
2024/02/13 09:35:50;;;;;;;;;;;;;;;26.42;38.78;94452.78;5055258;28;6959;-57
2024/02/13 09:38:27;;;;;;;;;;;;;;;26.38;38.84;94447.53;5077711;28;7566;-55
2024/02/13 09:41:12;;;;;;;;;;;;;;;26.40;38.64;94458.06;5085592;28;7258;-57
2024/02/13 09:43:39;;;;;;;;;;;;;;;26.41;38.72;94452.03;5067781;28;6994;-57
2024/02/13 09:46:09;;;;;;;;;;;;;;;26.39;38.57;94457.31;5070172;28;7414;-57
2024/02/13 09:48:37;;;;;;;;;;;;;;;26.41;38.80;94456.78;5080471;28;7245;-56
2024/02/13 09:51:18;;;;;;;;;;;;;;;26.43;38.61;94457.03;5074581;28;6987;-57
2024/02/13 09:54:04;;;;;;;;;;;;;;;26.44;38.59;94456.53;5093814;28;7061;-57
2024/02/13 09:56:32;;;;;;;;;;;;;;;26.46;39.10;94458.75;5051731;28;7337;-57
2024/02/13 09:59:09;;;;;;;;;;;;;;;26.45;38.74;94460.75;5062846;28;7248;-57
2024/02/13 10:01:38;;;;;;;;;;;;;;;26.45;38.48;94460.00;5088649;28;7225;-57
2024/02/13 10:04:08;;;;;;;;;;;;;;;26.43;39.15;94463.28;5079794;28;7052;-56
2024/02/13 10:06:35;;;;;;;;;;;;;;;26.46;38.84;94461.53;5080734;28;7236;-56
2024/02/13 10:09:05;;;;;;;;;;;;;;;26.46;38.81;94461.53;5065890;28;7184;-57
2024/02/13 10:11:34;;;;;;;;;;;;;;;26.48;39.07;94470.78;5067473;28;8724;-57
2024/02/13 10:14:01;;;;;;;;;;;;;;;26.50;38.45;94473.00;5054083;28;7081;-57
2024/02/13 10:16:28;;;;;;;;;;;;;;;26.50;39.22;94475.78;5062226;28;7258;-57
2024/02/13 10:19:05;;;;;;;;;;;;;;;26.51;38.73;94474.53;5066209;28;7302;-57
2024/02/13 10:21:30;;;;;;;;;;;;;;;26.50;38.82;94473.78;5073307;28;8256;-57
2024/02/13 10:24:12;;;;;;;;;;;;;;;26.51;39.09;94475.25;5071395;28;7003;-57
2024/02/13 10:26:45;;;;;;;;;;;;;;;26.52;38.58;94473.25;5062162;28;7282;-57
2024/02/13 10:29:13;;;;;;;;;;;;;;;26.54;38.72;94473.47;5085175;28;7679;-57
2024/02/13 10:31:41;;;;;;;;;;;;;;;26.53;39.05;94474.75;5085258;28;7247;-57
2024/02/13 10:34:09;;;;;;;;;;;;;;;26.53;39.20;94470.00;5074788;28;7552;-56
2024/02/13 10:36:39;;;;;;;;;;;;;;;26.55;39.11;94474.97;5085972;28;7203;-56
2024/02/13 10:39:08;;;;;;;;;;;;;;;26.54;38.72;94463.19;5070107;28;7032;-56
2024/02/13 10:41:42;;;;;;;;;;;;;;;26.55;39.21;94472.97;5065737;28;7090;-56
2024/02/13 10:44:13;;;;;;;;;;;;;;;26.56;39.03;94473.72;5076871;28;7272;-56
2024/02/13 10:46:44;;;;;;;;;;;;;;;26.57;39.01;94472.47;5061503;28;7341;-56
2024/02/13 10:49:54;;;;;;;;;;;;;;;26.59;39.03;94475.44;5063982;28;7334;-56
2024/02/13 10:52:21;;;;;;;;;;;;;;;26.60;39.22;94466.66;4977070;28;7303;-56
2024/02/13 10:54:49;;;;;;;;;;;;;;;26.61;38.92;94470.91;4975669;28;7120;-56
2024/02/13 10:57:19;;;;;;;;;;;;;;;26.61;38.88;94468.16;4956538;28;7227;-56
2024/02/13 10:59:50;;;;;;;;;;;;;;;26.61;38.82;94470.91;4968358;28;7486;-56
2024/02/13 11:02:19;;;;;;;;;;;;;;;26.63;38.31;94475.91;4965382;28;7025;-56
2024/02/13 11:04:51;;;;;;;;;;;;;;;26.62;38.82;94479.94;4971507;28;9077;-57
2024/02/13 11:07:18;;;;;;;;;;;;;;;26.61;38.67;94483.94;4966191;28;9149;-56
2024/02/13 11:09:44;;;;;;;;;;;;;;;26.59;38.58;94478.97;4971712;28;7243;-56
2024/02/13 11:12:11;;;;;;;;;;;;;;;26.60;38.04;94474.19;4978611;28;8817;-56
2024/02/13 11:14:37;;;;;;;;;;;;;;;26.61;37.67;94478.44;4960223;28;7625;-56
2024/02/13 11:17:10;;;;;;;;;;;;;;;26.59;38.64;94481.72;4973606;28;8080;-56
2024/02/13 11:19:37;;;;;;;;;;;;;;;26.62;37.89;94475.16;4969302;28;9052;-56
2024/02/13 11:22:11;;;;;;;;;;;;;;;26.61;38.46;94478.44;4987335;28;8285;-56
2024/02/13 11:24:51;;;;;;;;;;;;;;;26.61;38.03;94481.19;4981775;28;7540;-56
2024/02/13 11:27:25;;;;;;;;;;;;;;;26.63;38.42;94478.66;5003708;28;7898;-55
2024/02/13 11:30:02;;;;;;;;;;;;;;;26.64;38.29;94483.66;5061277;28;9095;-55
2024/02/13 11:32:37;;;;;;;;;;;;;;;26.63;38.19;94487.69;5063874;28;9015;-55
2024/02/13 11:35:10;;;;;;;;;;;;;;;26.62;38.44;94477.19;5072235;28;9481;-53
2024/02/13 11:37:36;;;;;;;;;;;;;;;26.60;39.03;94483.19;5057150;28;6856;-56
2024/02/13 11:40:21;;;;;;;;;;;;;;;26.59;39.76;94481.72;5057491;28;7243;-55
2024/02/13 11:42:50;;;;;;;;;;;;;;;26.60;38.96;94477.69;5071940;28;7062;-55
2024/02/13 11:45:26;;;;;;;;;;;;;;;26.60;39.29;94488.72;5064369;28;7616;-55
2024/02/13 11:47:54;;;;;;;;;;;;;;;26.62;39.15;94488.22;5086678;28;7347;-55
2024/02/13 11:50:22;;;;;;;;;;;;;;;26.62;39.38;94483.44;5076556;28;7241;-53
2024/02/13 11:52:57;;;;;;;;;;;;;;;26.62;39.11;94488.22;5075014;28;9047;-55
2024/02/13 11:55:23;;;;;;;;;;;;;;;26.64;39.13;94483.66;5041123;28;8722;-55
2024/02/13 11:58:03;;;;;;;;;;;;;;;26.67;39.02;94481.88;5071254;28;9029;-53
2024/02/13 12:00:56;;;;;;;;;;;;;;;26.70;39.01;94478.84;5060751;28;8746;-55
2024/02/13 12:03:30;;;;;;;;;;;;;;;26.73;38.90;94482.63;5054191;28;8388;-54
2024/02/13 12:06:05;;;;;;;;;;;;;;;26.74;39.20;94484.88;5064111;28;7272;-56
2024/02/13 12:08:36;;;;;;;;;;;;;;;26.75;38.93;94478.06;5066285;28;7674;-55
2024/02/13 12:11:03;;;;;;;;;;;;;;;26.75;39.03;94480.09;5080991;28;7236;-55
2024/02/13 12:13:47;;;;;;;;;;;;;;;26.70;38.53;94470.59;5081299;28;8804;-55
2024/02/13 12:16:23;;;;;;;;;;;;;;;26.63;36.04;94470.38;5073486;28;7090;-57
2024/02/13 12:18:49;;;;;;;;;;;;;;;26.45;30.31;94466.28;5078601;28;8824;-57
2024/02/13 12:21:16;;;;;;;;;;;;;;;26.25;30.62;94466.72;5071959;28;7080;-57
2024/02/13 12:23:46;;;;;;;;;;;;;;;26.10;27.47;94477.34;5050607;28;7004;-56
2024/02/13 12:26:28;;;;;;;;;;;;;;;25.95;28.12;94469.41;5072381;28;7301;-56
2024/02/13 12:29:14;;;;;;;;;;;;;;;25.97;27.24;94466.88;5070856;28;7479;-56
2024/02/13 12:31:48;;;;;;;;;;;;;;;26.02;27.34;94476.38;5057178;28;9259;-56
2024/02/13 12:34:25;;;;;;;;;;;;;;;26.08;27.73;94464.06;5049831;28;7246;-56
2024/02/13 12:36:57;;;;;;;;;;;;;;;26.13;28.32;94457.78;5069695;28;8802;-56
2024/02/13 12:39:25;;;;;;;;;;;;;;;26.21;27.95;94463.47;5080792;28;9072;-55
2024/02/13 12:42:01;;;;;;;;;;;;;;;26.26;28.00;94457.16;5062616;28;7067;-56
2024/02/13 12:44:30;;;;;;;;;;;;;;;26.31;27.76;94456.38;5071158;28;7317;-56
2024/02/13 12:46:57;;;;;;;;;;;;;;;26.37;27.85;94453.56;5061718;28;9125;-55
2024/02/13 12:49:26;;;;;;;;;;;;;;;26.40;27.94;94455.31;5080913;28;7364;-56
2024/02/13 12:51:53;;;;;;;;;;;;;;;26.43;28.82;94451.50;5073717;28;9073;-56
2024/02/13 12:54:20;;;;;;;;;;;;;;;26.47;28.72;94449.25;5071848;28;7141;-55
2024/02/13 12:56:46;;;;;;;;;;;;;;;26.52;29.52;94448.41;5067234;28;9500;-55
2024/02/13 12:59:14;;;;;;;;;;;;;;;26.52;29.07;94437.38;5063038;28;9398;-55
2024/02/13 13:01:44;;;;;;;;;;;;;;;26.56;29.65;94443.38;5055326;28;7235;-56
2024/02/13 13:04:38;;;;;;;;;;;;;;;26.63;30.41;94442.81;5062432;28;7045;-55
2024/02/13 13:07:19;;;;;;;;;;;;;;;26.64;29.89;94441.56;5070087;28;7425;-55
2024/02/13 13:09:47;;;;;;;;;;;;;;;26.68;30.07;94439.25;5065457;28;7017;-55
2024/02/13 13:12:21;;;;;;;;;;;;;;;26.71;30.55;94438.19;5063413;28;7114;-57
2024/02/13 13:15:06;;;;;;;;;;;;;;;26.72;30.62;94443.22;5058180;28;9125;-57
2024/02/13 13:17:48;;;;;;;;;;;;;;;26.75;30.91;94444.22;5082727;28;7161;-58
2024/02/13 13:20:17;;;;;;;;;;;;;;;26.77;31.06;94436.19;5067212;28;7242;-57
2024/02/13 13:22:47;;;;;;;;;;;;;;;26.79;30.81;94430.88;5049065;28;7958;-57
2024/02/13 13:25:31;;;;;;;;;;;;;;;26.80;31.09;94429.59;5069560;28;9533;-56
2024/02/13 13:28:23;;;;;;;;;;;;;;;26.85;31.64;94437.09;5066812;28;7259;-58